Time;durP1;ratioP1;P1;durP2;ratioP2;P2;SDS_P1;SDS_P2;PMS_P1;PMS_P2;Temp;Humidity;BMP_temperature;BMP_pressure;BME280_temperature;BME280_humidity;BME280_pressure;Samples;Min_cycle;Max_cycle;Signal;HPM_P1;HPM_P2
2022/08/06 00:02:12;;;;;;;4.53;0.80;;;;;;;22.07;38.55;102296.81;5038398;28;20452;-64
2022/08/06 00:04:37;;;;;;;3.70;1.58;;;;;;;22.07;38.54;102313.19;5038352;28;20032;-64
2022/08/06 00:07:03;;;;;;;3.22;0.80;;;;;;;22.01;38.49;102308.38;5054835;28;20394;-64
2022/08/06 00:09:32;;;;;;;7.32;0.93;;;;;;;21.97;39.19;102315.22;5055010;28;20096;-64
2022/08/06 00:11:59;;;;;;;7.20;0.70;;;;;;;21.92;38.30;102310.25;5056049;28;20032;-64
2022/08/06 00:14:27;;;;;;;0.70;0.65;;;;;;;21.86;38.58;102315.50;5054922;28;20454;-64
2022/08/06 00:16:53;;;;;;;0.55;0.55;;;;;;;21.77;38.56;102311.91;5054861;28;20021;-65
2022/08/06 00:19:18;;;;;;;3.63;1.10;;;;;;;21.72;38.80;102327.06;5054845;28;20033;-64
2022/08/06 00:21:44;;;;;;;2.30;0.82;;;;;;;21.67;39.40;102322.06;5037919;28;20092;-64
2022/08/06 00:24:09;;;;;;;2.13;1.00;;;;;;;21.64;38.99;102327.00;5055748;28;20079;-64
2022/08/06 00:26:37;;;;;;;4.40;0.77;;;;;;;21.58;38.70;102328.50;5055941;28;20032;-63
2022/08/06 00:29:02;;;;;;;2.65;0.98;;;;;;;21.55;38.94;102333.47;5038216;28;20033;-63
2022/08/06 00:31:28;;;;;;;3.85;1.27;;;;;;;21.52;39.79;102334.63;5038173;28;20029;-63
2022/08/06 00:33:55;;;;;;;1.23;0.60;;;;;;;21.49;39.45;102334.97;5054422;28;20029;-65
2022/08/06 00:36:21;;;;;;;2.50;1.10;;;;;;;21.44;39.46;102329.97;5055567;28;20079;-64
2022/08/06 00:38:47;;;;;;;2.75;1.05;;;;;;;21.44;39.44;102329.97;5054276;28;20028;-64
2022/08/06 00:41:14;;;;;;;2.75;0.85;;;;;;;21.38;39.53;102317.00;5054240;28;20035;-64
2022/08/06 00:43:41;;;;;;;2.78;1.08;;;;;;;21.34;39.33;102332.00;5037902;28;20599;-65
2022/08/06 00:46:06;;;;;;;5.45;0.95;;;;;;;21.33;39.51;102333.00;5054169;28;20017;-64
2022/08/06 00:48:32;;;;;;;4.18;1.10;;;;;;;21.28;39.56;102327.19;5037570;28;20033;-64
2022/08/06 00:50:57;;;;;;;1.38;1.10;;;;;;;21.25;39.77;102337.53;5054299;28;20071;-64
2022/08/06 00:53:22;;;;;;;2.17;1.20;;;;;;;21.21;39.63;102330.72;5054908;28;20494;-64
2022/08/06 00:55:48;;;;;;;3.83;1.15;;;;;;;21.16;40.37;102333.91;5053258;28;20032;-64
2022/08/06 00:58:13;;;;;;;3.95;0.90;;;;;;;21.14;40.01;102335.97;5055199;28;20106;-64
2022/08/06 01:00:39;;;;;;;6.40;1.40;;;;;;;21.09;40.13;102332.00;5054005;28;20021;-64
2022/08/06 01:03:04;;;;;;;2.13;0.93;;;;;;;21.04;40.02;102337.91;5055061;28;20035;-64
2022/08/06 01:05:30;;;;;;;3.42;1.85;;;;;;;21.01;39.93;102335.50;5020672;28;20025;-64
2022/08/06 01:07:55;;;;;;;2.85;0.85;;;;;;;20.99;40.57;102336.69;5037122;28;20060;-64
2022/08/06 01:10:22;;;;;;;1.75;1.00;;;;;;;20.95;40.42;102336.16;5037128;28;20390;-63
2022/08/06 01:12:47;;;;;;;3.47;1.13;;;;;;;20.87;40.46;102336.94;5053783;28;20159;-64
2022/08/06 01:15:12;;;;;;;4.47;0.93;;;;;;;20.86;40.31;102348.00;5053662;28;20112;-64
2022/08/06 01:18:06;;;;;;;3.05;1.08;;;;;;;20.82;40.25;102346.63;5054692;28;20496;-64
2022/08/06 01:20:55;;;;;;;7.65;1.25;;;;;;;20.73;40.47;102347.56;5054602;28;20048;-64
2022/08/06 01:23:58;;;;;;;5.00;0.98;;;;;;;20.68;40.30;102360.78;5052722;28;20116;-64
2022/08/06 01:26:33;;;;;;;1.00;1.00;;;;;;;20.61;40.60;102348.81;5053461;28;20017;-64
2022/08/06 01:29:02;;;;;;;2.95;1.02;;;;;;;20.56;40.47;102357.47;5053658;28;20699;-64
2022/08/06 01:31:48;;;;;;;6.43;1.42;;;;;;;20.51;40.80;102354.34;5053369;28;20120;-64
2022/08/06 01:34:20;;;;;;;2.17;1.00;;;;;;;20.46;40.32;102362.16;5053321;28;20066;-64
2022/08/06 01:36:51;;;;;;;1.58;1.10;;;;;;;20.47;40.74;102371.16;5036575;28;20021;-64
2022/08/06 01:39:18;;;;;;;3.13;1.20;;;;;;;20.43;40.39;102369.75;5053224;28;20029;-64
2022/08/06 01:41:47;;;;;;;1.35;0.93;;;;;;;20.41;40.95;102371.78;5053107;28;20079;-64
2022/08/06 01:44:18;;;;;;;1.88;0.98;;;;;;;20.40;40.57;102367.34;5053080;28;20025;-64
2022/08/06 01:46:49;;;;;;;1.00;0.90;;;;;;;20.37;41.21;102373.09;5052973;28;20024;-64
2022/08/06 01:49:19;;;;;;;1.88;0.73;;;;;;;20.33;40.48;102376.13;5052918;28;20566;-64
2022/08/06 01:51:46;;;;;;;1.67;1.05;;;;;;;20.30;40.81;102379.16;5053060;28;20386;-64
2022/08/06 01:54:12;;;;;;;6.22;1.10;;;;;;;20.28;40.53;102374.88;5053993;28;20418;-64
2022/08/06 01:56:41;;;;;;;3.15;0.93;;;;;;;20.24;40.71;102376.16;5052924;28;20029;-65
2022/08/06 01:59:07;;;;;;;2.17;1.20;;;;;;;20.22;40.76;102380.91;5036190;28;20033;-64
2022/08/06 02:01:34;;;;;;;4.57;0.90;;;;;;;20.18;41.00;102380.34;5052818;28;20033;-64
2022/08/06 02:04:00;;;;;;;5.53;1.23;;;;;;;20.12;41.57;102370.09;5052615;28;20067;-65
2022/08/06 02:06:34;;;;;;;3.38;0.95;;;;;;;20.11;41.75;102383.84;5036089;28;20029;-64
2022/08/06 02:09:05;;;;;;;2.00;1.58;;;;;;;20.04;41.24;102380.91;5052977;28;20474;-63
2022/08/06 02:11:32;;;;;;;3.35;0.95;;;;;;;20.00;40.83;102381.34;5052666;28;20032;-63
2022/08/06 02:14:00;;;;;;;1.48;1.23;;;;;;;19.97;41.75;102382.50;5053867;28;20482;-63
2022/08/06 02:16:28;;;;;;;1.00;0.88;;;;;;;19.94;40.95;102382.78;5052616;28;20033;-63
2022/08/06 02:18:54;;;;;;;6.18;1.10;;;;;;;19.92;41.18;102386.69;5052685;28;20035;-64
2022/08/06 02:21:20;;;;;;;1.95;1.10;;;;;;;19.89;41.29;102390.56;5035630;28;20057;-64
2022/08/06 02:23:47;;;;;;;3.90;1.30;;;;;;;19.84;41.46;102382.00;5052393;28;20029;-64
2022/08/06 02:26:14;;;;;;;2.08;1.13;;;;;;;19.85;41.28;102389.13;5035836;28;20025;-64
2022/08/06 02:28:42;;;;;;;2.08;0.90;;;;;;;19.83;41.35;102395.75;5052382;28;20159;-64
2022/08/06 02:31:07;;;;;;;2.20;0.98;;;;;;;19.79;41.40;102394.34;5052173;28;20099;-64
2022/08/06 02:33:33;;;;;;;1.40;0.93;;;;;;;19.76;41.83;102395.50;5053468;28;20529;-65
2022/08/06 02:36:07;;;;;;;2.13;0.90;;;;;;;19.70;41.99;102390.66;5052241;28;20028;-64
2022/08/06 02:38:40;;;;;;;1.67;0.98;;;;;;;19.69;41.91;102395.25;5052216;28;20054;-64
2022/08/06 02:41:37;;;;;;;3.15;1.10;;;;;;;19.67;41.64;102399.13;5035634;28;20433;-64
2022/08/06 02:44:09;;;;;;;1.75;0.80;;;;;;;19.64;41.12;102399.41;5053367;28;20033;-64
2022/08/06 02:46:50;;;;;;;1.98;1.08;;;;;;;19.57;41.91;102395.59;5052166;28;20021;-63
2022/08/06 02:49:20;;;;;;;1.60;1.33;;;;;;;19.54;41.67;102401.34;5052038;28;20090;-64
2022/08/06 02:51:52;;;;;;;1.65;1.17;;;;;;;19.51;42.33;102399.78;5052022;28;20040;-63
2022/08/06 02:54:20;;;;;;;4.32;1.25;;;;;;;19.48;42.29;102396.47;5051837;28;20036;-63
2022/08/06 02:56:47;;;;;;;2.25;0.93;;;;;;;19.46;41.98;102398.47;5051908;28;20375;-63
2022/08/06 02:59:21;;;;;;;1.40;0.73;;;;;;;19.43;42.09;102409.66;5052297;28;20170;-64
2022/08/06 03:01:59;;;;;;;2.58;0.95;;;;;;;19.41;42.10;102406.22;5051827;28;20024;-64
2022/08/06 03:04:27;;;;;;;5.75;1.10;;;;;;;19.41;42.11;102406.22;5035183;28;20029;-64
2022/08/06 03:06:53;;;;;;;2.42;1.42;;;;;;;19.37;42.37;102408.38;5051874;28;20135;-64
2022/08/06 03:09:19;;;;;;;4.28;1.13;;;;;;;19.39;42.26;102413.69;5035352;28;20119;-63
2022/08/06 03:11:46;;;;;;;1.85;1.15;;;;;;;19.34;42.48;102407.78;5051861;28;20032;-63
2022/08/06 03:14:12;;;;;;;5.97;1.15;;;;;;;19.34;41.98;102408.66;5051766;28;20394;-64
2022/08/06 03:16:38;;;;;;;2.38;1.02;;;;;;;19.32;42.60;102412.53;5051879;28;20022;-63
2022/08/06 03:19:04;;;;;;;3.20;1.30;;;;;;;19.25;42.09;102406.81;5055470;28;20044;-64
2022/08/06 03:21:30;;;;;;;3.72;0.93;;;;;;;19.26;41.80;102407.69;5055592;28;20045;-63
2022/08/06 03:23:58;;;;;;;2.45;1.15;;;;;;;19.27;42.84;102418.38;5055791;28;20029;-63
2022/08/06 03:26:27;;;;;;;4.18;0.98;;;;;;;19.26;42.54;102418.56;5055734;28;20024;-64
2022/08/06 03:28:56;;;;;;;3.90;1.40;;;;;;;19.22;42.91;102417.97;5055828;28;20052;-64
2022/08/06 03:31:25;;;;;;;4.10;1.35;;;;;;;19.18;41.95;102417.41;5022489;28;20387;-64
2022/08/06 03:33:51;;;;;;;2.45;1.10;;;;;;;19.16;42.20;102424.84;5055594;28;20390;-64
2022/08/06 03:36:18;;;;;;;5.22;1.33;;;;;;;19.11;42.03;102424.44;5038907;28;20490;-64
2022/08/06 03:38:56;;;;;;;5.10;1.00;;;;;;;19.08;42.98;102432.88;5055530;28;20052;-63
2022/08/06 03:41:27;;;;;;;5.83;1.10;;;;;;;19.04;42.50;102431.44;5055447;28;20032;-63
2022/08/06 03:43:52;;;;;;;1.00;0.93;;;;;;;19.01;42.34;102431.72;5038723;28;20391;-64
2022/08/06 03:46:23;;;;;;;2.22;1.10;;;;;;;18.97;42.78;102426.75;5055330;28;20029;-64
2022/08/06 03:48:49;;;;;;;1.27;0.90;;;;;;;18.94;42.53;102430.59;5055207;28;20798;-64
2022/08/06 03:51:17;;;;;;;3.90;1.00;;;;;;;18.95;43.22;102436.91;5055352;28;20474;-64
2022/08/06 03:53:44;;;;;;;2.00;0.82;;;;;;;18.93;43.07;102434.31;5038554;28;20391;-64
2022/08/06 03:56:15;;;;;;;0.90;0.77;;;;;;;18.90;42.70;102422.91;5055163;28;20025;-64
2022/08/06 03:58:43;;;;;;;1.08;0.98;;;;;;;18.91;42.85;102435.47;5055270;28;20025;-65
2022/08/06 04:01:14;;;;;;;2.35;1.13;;;;;;;18.91;42.71;102440.88;5055161;28;20036;-64
2022/08/06 04:03:41;;;;;;;3.78;1.63;;;;;;;18.88;42.34;102425.75;5038277;28;20029;-64
2022/08/06 04:06:10;;;;;;;2.22;1.13;;;;;;;18.89;43.38;102432.91;5055167;28;20028;-64
2022/08/06 04:08:38;;;;;;;1.83;0.82;;;;;;;18.90;43.14;102439.19;5055039;28;20070;-64
2022/08/06 04:11:04;;;;;;;1.35;0.93;;;;;;;18.88;42.74;102442.03;5056105;28;20048;-64
2022/08/06 04:13:29;;;;;;;2.05;1.10;;;;;;;18.89;43.30;102438.34;5056083;28;20475;-63
2022/08/06 04:15:55;;;;;;;2.40;1.65;;;;;;;18.88;42.90;102444.75;5054886;28;20025;-63
2022/08/06 04:18:24;;;;;;;1.75;1.13;;;;;;;18.89;43.22;102442.91;5038190;28;20032;-63
2022/08/06 04:20:52;;;;;;;2.03;1.20;;;;;;;18.86;43.44;102445.91;5037751;28;20048;-63
2022/08/06 04:23:18;;;;;;;2.20;1.10;;;;;;;18.84;42.69;102446.06;5037967;28;20037;-63
2022/08/06 04:25:47;;;;;;;1.67;0.82;;;;;;;18.85;42.92;102442.31;5038100;28;20045;-63
2022/08/06 04:28:13;;;;;;;3.22;1.08;;;;;;;18.79;43.29;102434.75;5054569;28;20025;-64
2022/08/06 04:30:39;;;;;;;2.42;1.10;;;;;;;18.85;43.05;102446.88;5038009;28;20486;-64
2022/08/06 04:33:06;;;;;;;3.75;1.00;;;;;;;18.91;43.81;102449.91;5037846;28;20013;-64
2022/08/06 04:35:32;;;;;;;6.30;1.48;;;;;;;18.92;43.41;102443.47;5054527;28;20025;-64
2022/08/06 04:37:58;;;;;;;1.65;1.55;;;;;;;18.92;42.81;102432.63;5054359;28;20037;-64
2022/08/06 04:40:25;;;;;;;4.25;1.20;;;;;;;18.95;43.49;102442.34;5054473;28;20078;-63
2022/08/06 04:42:50;;;;;;;2.15;1.40;;;;;;;19.01;43.92;102448.03;5054306;28;20039;-64
2022/08/06 04:45:16;;;;;;;1.98;1.20;;;;;;;19.02;43.30;102438.88;5055472;28;20390;-64
2022/08/06 04:47:42;;;;;;;1.60;1.50;;;;;;;19.12;43.11;102456.00;5054177;28;20035;-63
2022/08/06 04:50:10;;;;;;;3.58;1.60;;;;;;;19.16;43.92;102457.44;5037559;28;20123;-63
2022/08/06 04:52:35;;;;;;;1.52;1.08;;;;;;;19.26;43.31;102459.31;5054243;28;20021;-63
2022/08/06 04:55:00;;;;;;;2.30;1.58;;;;;;;19.33;43.35;102463.13;5054136;28;20482;-63
2022/08/06 04:57:26;;;;;;;5.35;1.38;;;;;;;19.41;43.12;102469.59;5037420;28;20029;-64
2022/08/06 04:59:51;;;;;;;1.95;1.13;;;;;;;19.49;43.00;102474.28;5037668;28;20515;-64
2022/08/06 05:02:17;;;;;;;1.33;1.23;;;;;;;19.55;43.82;102469.13;5037168;28;20033;-64
2022/08/06 05:04:43;;;;;;;6.28;1.50;;;;;;;19.66;43.73;102465.38;5020673;28;20386;-63
2022/08/06 05:07:20;;;;;;;7.38;1.40;;;;;;;19.77;43.36;102473.34;5037349;28;20036;-63
2022/08/06 05:09:45;;;;;;;4.78;1.30;;;;;;;19.87;43.28;102479.63;5053895;28;20107;-63
2022/08/06 05:12:43;;;;;;;3.83;1.30;;;;;;;20.01;43.74;102479.13;5053823;28;20172;-63
2022/08/06 05:15:18;;;;;;;10.90;1.48;;;;;;;20.13;43.48;102480.63;5053665;28;20478;-64
2022/08/06 05:17:51;;;;;;;3.65;1.30;;;;;;;20.26;43.09;102470.31;5036904;28;20040;-64
2022/08/06 05:20:20;;;;;;;4.75;1.23;;;;;;;20.45;43.32;102473.91;5053528;28;20076;-64
2022/08/06 05:22:53;;;;;;;6.68;1.38;;;;;;;20.60;43.39;102466.94;5053453;28;20037;-63
2022/08/06 05:25:18;;;;;;;3.05;1.50;;;;;;;20.77;43.52;102469.66;5053584;28;20387;-64
2022/08/06 05:27:44;;;;;;;2.83;1.17;;;;;;;20.95;43.03;102474.25;5036916;28;20086;-63
2022/08/06 05:30:10;;;;;;;4.50;1.00;;;;;;;21.12;43.04;102468.81;5036839;28;20391;-63
2022/08/06 05:32:47;;;;;;;6.18;1.73;;;;;;;21.34;43.02;102468.31;5053551;28;20032;-63
2022/08/06 05:35:13;;;;;;;4.78;1.35;;;;;;;21.53;42.68;102466.38;5036621;28;20029;-64
2022/08/06 05:37:39;;;;;;;5.80;1.20;;;;;;;21.74;43.45;102469.59;5036776;28;20081;-64
2022/08/06 05:40:05;;;;;;;4.60;1.63;;;;;;;21.98;43.04;102477.94;5036178;28;20120;-64
2022/08/06 05:42:31;;;;;;;2.45;1.20;;;;;;;22.19;43.12;102475.66;5053183;28;20500;-63
2022/08/06 05:44:56;;;;;;;6.18;1.52;;;;;;;22.40;42.69;102484.25;5036521;28;20112;-64
2022/08/06 05:47:24;;;;;;;5.93;1.35;;;;;;;22.66;41.88;102488.78;5054417;28;20029;-64
2022/08/06 05:49:54;;;;;;;4.75;1.30;;;;;;;22.82;42.53;102491.53;5036344;28;20068;-64
2022/08/06 05:52:27;;;;;;;5.38;1.70;;;;;;;23.05;41.97;102484.41;5036271;28;20075;-64
2022/08/06 05:55:06;;;;;;;9.55;1.65;;;;;;;23.29;41.53;102486.25;5053118;28;20422;-65
2022/08/06 05:57:38;;;;;;;4.30;1.40;;;;;;;23.51;41.65;102494.66;5036341;28;20533;-65
2022/08/06 06:00:10;;;;;;;3.20;1.00;;;;;;;23.73;40.73;102491.19;5036174;28;20059;-65
2022/08/06 06:02:38;;;;;;;4.47;1.45;;;;;;;23.94;41.12;102487.91;5053000;28;20025;-65
2022/08/06 06:05:04;;;;;;;2.22;1.15;;;;;;;24.15;40.81;102499.13;5052952;28;20036;-65
2022/08/06 06:07:30;;;;;;;2.20;1.23;;;;;;;24.37;40.67;102489.31;5052991;28;20021;-65
2022/08/06 06:09:55;;;;;;;3.88;1.50;;;;;;;24.59;40.67;102493.97;5052788;28;20029;-65
2022/08/06 06:12:22;;;;;;;3.55;1.08;;;;;;;24.82;39.96;102492.13;5053825;28;20025;-65
2022/08/06 06:14:48;;;;;;;3.38;1.52;;;;;;;25.01;40.01;102487.22;5019556;28;20463;-65
2022/08/06 06:17:35;;;;;;;1.55;1.35;;;;;;;25.26;39.59;102502.44;5052431;28;20032;-65
2022/08/06 06:20:31;;;;;;;6.30;0.98;;;;;;;25.43;39.25;102504.00;5052343;28;20510;-65
2022/08/06 06:23:04;;;;;;;7.97;1.10;;;;;;;25.62;39.40;102498.00;5052495;28;20025;-65
2022/08/06 06:25:34;;;;;;;5.15;1.15;;;;;;;25.75;39.40;102498.19;5052428;28;20025;-65
2022/08/06 06:28:12;;;;;;;6.88;1.20;;;;;;;25.95;38.88;102502.09;5035673;28;20031;-65
2022/08/06 06:31:06;;;;;;;3.05;0.90;;;;;;;25.88;38.89;102509.38;5052191;28;20064;-65
2022/08/06 06:33:52;;;;;;;4.03;0.90;;;;;;;25.82;39.61;102510.16;5051460;28;20037;-64
2022/08/06 06:36:47;;;;;;;8.40;1.20;;;;;;;25.83;38.69;102506.34;5041654;28;20112;-66
2022/08/06 06:39:55;;;;;;;3.70;1.08;;;;;;;25.84;38.68;102513.56;5052790;28;20379;-65
2022/08/06 06:42:37;;;;;;;1.40;0.82;;;;;;;25.82;38.77;102510.16;5048904;28;20029;-66
2022/08/06 06:45:08;;;;;;;2.25;1.27;;;;;;;25.83;39.38;102514.59;5035398;28;20063;-65
2022/08/06 06:47:43;;;;;;;4.93;1.65;;;;;;;26.01;38.22;102520.56;5052061;28;20029;-65
2022/08/06 06:50:13;;;;;;;9.77;1.92;;;;;;;26.16;38.55;102517.00;5035130;28;20025;-65
2022/08/06 06:52:40;;;;;;;2.90;1.08;;;;;;;26.37;38.18;102519.81;5051143;28;20079;-65
2022/08/06 06:55:17;;;;;;;2.40;1.00;;;;;;;26.35;38.28;102521.91;5035210;28;20035;-65
2022/08/06 06:57:45;;;;;;;2.13;1.08;;;;;;;26.28;38.55;102520.97;5051889;28;20394;-66
2022/08/06 07:00:11;;;;;;;5.28;1.33;;;;;;;26.30;38.15;102527.97;5035156;28;20025;-65
2022/08/06 07:02:40;;;;;;;2.08;1.00;;;;;;;26.27;38.38;102535.75;5035179;28;20108;-65
2022/08/06 07:05:07;;;;;;;2.30;1.08;;;;;;;26.29;38.06;102540.03;5035465;28;20036;-65
2022/08/06 07:07:35;;;;;;;5.55;0.68;;;;;;;26.32;38.29;102533.28;5035030;28;20020;-65
2022/08/06 07:10:02;;;;;;;2.67;0.90;;;;;;;26.41;38.03;102529.41;5051829;28;20021;-64
2022/08/06 07:12:30;;;;;;;3.13;1.20;;;;;;;26.42;38.14;102531.09;5052858;28;20230;-65
2022/08/06 07:14:57;;;;;;;3.47;1.13;;;;;;;26.43;38.15;102536.41;5051668;28;20025;-66
2022/08/06 07:17:24;;;;;;;2.88;0.82;;;;;;;26.49;38.27;102532.88;5051626;28;20371;-65
2022/08/06 07:19:53;;;;;;;3.70;1.08;;;;;;;26.55;38.06;102539.50;5051375;28;20056;-65
2022/08/06 07:22:20;;;;;;;2.22;1.00;;;;;;;26.68;37.47;102536.94;5035005;28;20541;-66
2022/08/06 07:24:46;;;;;;;6.60;1.58;;;;;;;26.86;37.27;102531.00;5051550;28;20378;-65
2022/08/06 07:27:12;;;;;;;1.20;0.70;;;;;;;26.96;37.56;102537.91;5051562;28;20037;-66
2022/08/06 07:29:39;;;;;;;2.72;0.93;;;;;;;27.15;36.77;102531.75;5034858;28;20063;-65
2022/08/06 07:32:07;;;;;;;7.60;0.80;;;;;;;27.38;36.68;102531.56;5051744;28;20497;-66
2022/08/06 07:34:33;;;;;;;4.82;0.70;;;;;;;27.64;36.36;102544.72;5051666;28;20056;-66
2022/08/06 07:36:59;;;;;;;4.97;1.25;;;;;;;27.80;37.00;102547.19;5051624;28;20076;-65
2022/08/06 07:39:28;;;;;;;2.47;0.68;;;;;;;28.04;36.92;102548.66;5051616;28;20021;-65
2022/08/06 07:41:54;;;;;;;3.72;0.85;;;;;;;28.32;35.78;102538.41;5051470;28;20025;-65
2022/08/06 07:44:23;;;;;;;1.52;0.68;;;;;;;28.55;35.83;102551.91;5051551;28;20029;-66
2022/08/06 07:46:54;;;;;;;0.75;0.57;;;;;;;28.70;35.63;102550.69;5051516;28;20103;-65
2022/08/06 07:49:23;;;;;;;0.47;0.47;;;;;;;28.76;35.64;102554.53;5035106;28;20024;-65
2022/08/06 07:51:50;;;;;;;1.83;0.43;;;;;;;28.93;36.01;102549.50;5051400;28;20083;-65
2022/08/06 07:54:16;;;;;;;3.38;0.93;;;;;;;29.24;34.60;102545.16;5051317;28;20025;-64
2022/08/06 07:56:43;;;;;;;3.13;0.70;;;;;;;29.55;34.81;102543.69;5051580;28;20035;-64
2022/08/06 07:59:09;;;;;;;2.38;0.50;;;;;;;29.80;34.95;102547.53;5034789;28;20031;-65
2022/08/06 08:01:35;;;;;;;2.90;0.57;;;;;;;29.67;34.98;102547.50;5051395;28;20446;-65
2022/08/06 08:06:45;;;;;;;1.70;0.70;;;;;;;29.91;34.44;102542.19;5055440;28;20090;-64
2022/08/06 08:09:16;;;;;;;1.20;0.50;;;;;;;30.18;34.38;102544.91;5038592;28;20425;-65
2022/08/06 08:11:43;;;;;;;5.50;0.60;;;;;;;30.34;34.31;102539.75;5038282;28;20108;-64
2022/08/06 08:14:10;;;;;;;1.67;0.47;;;;;;;30.58;34.04;102543.72;5038255;28;20045;-65
2022/08/06 08:16:37;;;;;;;3.13;0.50;;;;;;;30.74;33.60;102550.69;5038164;28;20058;-65
2022/08/06 08:19:02;;;;;;;3.10;0.80;;;;;;;30.77;33.36;102544.69;5055133;28;20103;-65
2022/08/06 08:21:28;;;;;;;2.03;0.52;;;;;;;30.79;33.34;102548.09;5054628;28;20093;-65
2022/08/06 08:23:55;;;;;;;1.13;0.40;;;;;;;30.55;33.29;102542.25;5038145;28;20044;-64
2022/08/06 08:26:20;;;;;;;1.92;0.35;;;;;;;30.40;33.50;102544.41;5055024;28;20071;-65
2022/08/06 08:28:46;;;;;;;1.75;0.40;;;;;;;30.21;33.78;102539.78;5056066;28;20065;-64
2022/08/06 08:31:13;;;;;;;0.90;0.30;;;;;;;30.07;33.68;102549.16;5055894;28;20025;-65
2022/08/06 08:33:39;;;;;;;1.13;0.20;;;;;;;29.94;33.53;102543.69;5054712;28;20028;-64
2022/08/06 08:36:05;;;;;;;0.43;0.20;;;;;;;29.87;33.74;102551.16;5037955;28;20486;-64
2022/08/06 08:38:32;;;;;;;0.70;0.30;;;;;;;29.71;33.48;102546.84;5037799;28;20021;-65
2022/08/06 08:41:08;;;;;;;0.52;0.20;;;;;;;29.57;32.90;102541.53;5054565;28;20067;-65
2022/08/06 08:43:44;;;;;;;4.07;1.08;;;;;;;29.52;33.45;102544.09;5055567;28;20605;-65
2022/08/06 08:46:11;;;;;;;0.20;0.20;;;;;;;29.44;33.20;102536.88;5054439;28;20395;-65
2022/08/06 08:48:37;;;;;;;0.85;0.22;;;;;;;29.44;33.28;102532.22;5037559;28;20021;-65
2022/08/06 08:51:03;;;;;;;0.60;0.22;;;;;;;29.37;33.66;102525.81;5054391;28;20115;-65
2022/08/06 08:53:34;;;;;;;1.15;0.50;;;;;;;29.53;33.44;102537.53;5054267;28;20106;-65
2022/08/06 08:56:00;;;;;;;1.40;0.30;;;;;;;29.99;32.49;102535.56;5037440;28;20023;-66
2022/08/06 08:58:25;;;;;;;1.90;0.22;;;;;;;30.38;32.21;102535.50;5054169;28;20029;-65
2022/08/06 09:00:51;;;;;;;1.08;0.30;;;;;;;30.80;32.23;102544.25;5037485;28;20037;-65
2022/08/06 09:03:16;;;;;;;0.77;0.20;;;;;;;30.66;32.30;102542.59;5053998;28;20028;-65
2022/08/06 09:05:42;;;;;;;3.15;0.30;;;;;;;31.09;31.25;102543.69;5037481;28;20033;-65
2022/08/06 09:08:09;;;;;;;0.70;0.20;;;;;;;31.50;30.84;102541.28;5053924;28;20033;-65
2022/08/06 09:10:35;;;;;;;0.20;0.20;;;;;;;31.78;30.76;102542.72;5053959;28;20079;-64
2022/08/06 09:13:00;;;;;;;1.80;0.32;;;;;;;32.11;30.79;102543.25;5053859;28;20021;-66
2022/08/06 09:15:25;;;;;;;4.22;0.40;;;;;;;32.04;31.25;102536.94;5052928;28;20029;-66
2022/08/06 09:17:51;;;;;;;0.80;0.20;;;;;;;32.02;30.77;102539.94;5037133;28;20037;-65
2022/08/06 09:20:16;;;;;;;3.03;0.30;;;;;;;31.84;31.19;102547.34;5053651;28;20053;-65
2022/08/06 09:22:49;;;;;;;4.10;0.32;;;;;;;31.51;31.45;102542.97;5053510;28;20393;-65
2022/08/06 09:25:37;;;;;;;0.35;0.20;;;;;;;31.74;30.62;102544.28;5054974;28;20371;-65
2022/08/06 09:28:11;;;;;;;0.80;0.30;;;;;;;31.96;29.99;102548.31;5053355;28;20471;-65
2022/08/06 09:30:38;;;;;;;0.40;0.25;;;;;;;32.11;30.52;102544.13;5036783;28;20451;-65
2022/08/06 09:33:10;;;;;;;2.33;0.28;;;;;;;32.16;29.94;102546.22;5054497;28;20017;-65
2022/08/06 09:35:36;;;;;;;0.03;0.00;;;;;;;32.07;29.46;102550.38;5036680;28;20031;-64
2022/08/06 09:38:08;;;;;;;1.33;0.22;;;;;;;32.02;29.45;102550.22;5053203;28;20037;-65
2022/08/06 09:40:33;;;;;;;1.88;0.20;;;;;;;31.81;29.45;102547.81;5036634;28;20025;-66
2022/08/06 09:42:59;;;;;;;4.32;0.30;;;;;;;31.85;29.56;102541.59;5036368;28;20086;-65
2022/08/06 09:45:25;;;;;;;0.73;0.20;;;;;;;31.99;29.59;102547.84;5036460;28;20112;-65
2022/08/06 09:48:05;;;;;;;0.57;0.10;;;;;;;32.09;28.80;102550.97;5053005;28;20033;-65
2022/08/06 09:50:41;;;;;;;0.90;0.20;;;;;;;32.19;29.14;102551.31;5054456;28;20063;-65
2022/08/06 09:53:07;;;;;;;1.65;0.28;;;;;;;31.88;29.25;102552.25;5036233;28;20028;-65
2022/08/06 09:55:33;;;;;;;3.78;0.50;;;;;;;31.63;29.47;102554.19;5036443;28;20052;-65
2022/08/06 09:57:58;;;;;;;0.30;0.20;;;;;;;31.41;29.59;102552.84;5054094;28;20478;-65
2022/08/06 10:00:33;;;;;;;3.00;0.28;;;;;;;31.18;29.46;102558.97;5036118;28;20436;-65
2022/08/06 10:03:00;;;;;;;3.92;0.45;;;;;;;31.01;29.53;102558.66;5036059;28;20528;-65
2022/08/06 10:05:26;;;;;;;0.50;0.50;;;;;;;30.84;29.33;102562.13;5052866;28;20382;-65
2022/08/06 10:08:02;;;;;;;0.38;0.20;;;;;;;30.71;29.52;102557.47;5052816;28;20040;-65
2022/08/06 10:10:42;;;;;;;2.45;0.40;;;;;;;31.87;28.51;102558.00;5053910;28;20036;-65
2022/08/06 10:13:15;;;;;;;0.63;0.20;;;;;;;33.61;27.05;102562.63;5052744;28;20021;-65
2022/08/06 10:15:42;;;;;;;0.20;0.20;;;;;;;34.44;25.55;102554.00;5053804;28;20025;-65
2022/08/06 10:18:07;;;;;;;3.83;0.57;;;;;;;34.57;26.46;102552.84;5052636;28;20028;-65
2022/08/06 10:20:33;;;;;;;5.78;0.68;;;;;;;34.73;25.69;102552.94;5053605;28;20124;-65
2022/08/06 10:22:58;;;;;;;0.77;0.20;;;;;;;34.96;26.33;102544.50;5052414;28;20501;-65
2022/08/06 10:25:24;;;;;;;1.23;0.20;;;;;;;35.25;26.07;102542.56;5035814;28;20025;-65
2022/08/06 10:27:53;;;;;;;0.25;0.20;;;;;;;35.61;25.53;102535.66;5052335;28;20115;-65
2022/08/06 10:30:20;;;;;;;2.22;0.30;;;;;;;35.98;25.46;102531.22;5035709;28;20029;-65
2022/08/06 10:32:53;;;;;;;1.50;0.28;;;;;;;36.39;25.33;102531.78;5052343;28;20017;-65
2022/08/06 10:35:20;;;;;;;1.45;0.65;;;;;;;36.68;24.74;102530.50;5052387;28;20029;-65
2022/08/06 10:37:50;;;;;;;1.02;0.43;;;;;;;37.13;24.30;102538.56;5053577;28;20098;-65
2022/08/06 10:40:17;;;;;;;1.13;0.52;;;;;;;37.55;24.45;102519.94;5052300;28;20475;-65
2022/08/06 10:42:43;;;;;;;2.65;0.40;;;;;;;38.00;24.26;102516.63;5052441;28;20017;-65
2022/08/06 10:45:10;;;;;;;0.20;0.20;;;;;;;38.20;23.31;102522.31;5055014;28;20509;-65
2022/08/06 10:47:37;;;;;;;0.45;0.20;;;;;;;37.36;24.14;102523.41;5036076;28;20478;-66
2022/08/06 10:50:02;;;;;;;0.73;0.35;;;;;;;36.53;24.67;102533.97;5052119;28;20060;-65
2022/08/06 10:52:28;;;;;;;0.52;0.20;;;;;;;35.76;24.82;102527.53;5035338;28;20028;-65
2022/08/06 10:54:56;;;;;;;3.58;0.55;;;;;;;35.09;25.47;102527.47;5035346;28;20039;-65
2022/08/06 10:57:22;;;;;;;0.55;0.20;;;;;;;34.50;25.19;102527.94;5035537;28;20053;-65
2022/08/06 10:59:47;;;;;;;0.47;0.20;;;;;;;34.11;25.66;102534.34;5052004;28;20056;-65
2022/08/06 11:02:42;;;;;;;1.33;0.40;;;;;;;34.52;24.05;102534.13;5051876;28;20029;-65
2022/08/06 11:05:19;;;;;;;22.38;1.00;;;;;;;35.64;23.51;102529.59;5052964;28;20510;-65
2022/08/06 11:08:05;;;;;;;2.55;0.57;;;;;;;36.27;23.82;102523.53;5051969;28;20056;-65
2022/08/06 11:10:40;;;;;;;1.95;0.10;;;;;;;36.55;22.85;102525.31;5053094;28;20025;-66
2022/08/06 11:13:24;;;;;;;0.95;0.32;;;;;;;37.01;22.61;102523.91;5051836;28;20108;-66
2022/08/06 11:15:50;;;;;;;0.85;0.70;;;;;;;37.16;22.47;102505.31;5053065;28;20109;-66
2022/08/06 11:18:16;;;;;;;1.88;0.30;;;;;;;37.72;22.54;102497.38;5051930;28;20032;-66
2022/08/06 11:20:44;;;;;;;1.35;0.40;;;;;;;38.32;21.79;102496.91;5052852;28;20151;-65
2022/08/06 11:23:12;;;;;;;2.03;0.50;;;;;;;38.70;21.63;102499.28;5035116;28;20475;-65
2022/08/06 11:25:46;;;;;;;1.77;0.25;;;;;;;37.58;22.01;102496.19;5051645;28;20123;-65
2022/08/06 11:28:16;;;;;;;0.55;0.15;;;;;;;36.73;22.54;102499.84;5051857;28;20096;-65
2022/08/06 11:30:49;;;;;;;0.20;0.20;;;;;;;36.41;22.58;102501.66;5051621;28;20024;-65
2022/08/06 11:33:18;;;;;;;1.35;0.32;;;;;;;36.71;22.50;102502.06;5052857;28;20028;-65
2022/08/06 11:35:48;;;;;;;1.20;0.20;;;;;;;36.50;22.75;102500.97;5051700;28;20401;-65
2022/08/06 11:38:15;;;;;;;2.08;0.20;;;;;;;36.11;22.54;102499.31;5035559;28;20122;-66